Time,TemperatureF,DewpointF,PressureIn,WindDirection,WindDirectionDegrees,WindSpeedMPH,WindSpeedGustMPH,Humidity,HourlyPrecipIn,Conditions,Clouds,dailyrainin,SoftwareType,DateUTC
2013-12-15 00:01:00,31.0,19.0,25.35,WNW,287,4.0,7.0,62,0.00,,,0.00,weatherlink.com 1.10,2013-12-15 07:01:00,
2013-12-15 00:16:00,30.3,19.0,25.34,WNW,285,5.0,6.0,64,0.00,,,0.00,weatherlink.com 1.10,2013-12-15 07:16:00,
2013-12-15 00:31:00,30.4,20.0,25.33,NW,309,2.0,7.0,65,0.00,,,0.00,weatherlink.com 1.10,2013-12-15 07:31:00,
2013-12-15 00:46:00,32.3,20.0,25.33,NW,326,10.0,11.0,62,0.00,,,0.00,weatherlink.com 1.10,2013-12-15 07:46:00,
2013-12-15 01:01:00,33.8,20.0,25.33,WNW,302,10.0,20.0,58,0.00,,,0.00,weatherlink.com 1.10,2013-12-15 08:01:00,
2013-12-15 01:17:00,34.5,20.0,25.34,NW,323,9.0,15.0,56,0.00,,,0.00,weatherlink.com 1.10,2013-12-15 08:17:00,
2013-12-15 01:32:00,34.3,20.0,25.34,NW,316,11.0,15.0,57,0.00,,,0.00,weatherlink.com 1.10,2013-12-15 08:32:00,
2013-12-15 01:47:00,34.3,20.0,25.34,WNW,303,9.0,18.0,57,0.00,,,0.00,weatherlink.com 1.10,2013-12-15 08:47:00,
2013-12-15 02:02:00,33.9,20.0,25.34,WNW,284,6.0,15.0,57,0.00,,,0.00,weatherlink.com 1.10,2013-12-15 09:02:00,
2013-12-15 02:17:00,32.3,20.0,25.34,NW,325,4.0,11.0,61,0.00,,,0.00,weatherlink.com 1.10,2013-12-15 09:17:00,
2013-12-15 02:32:00,32.7,20.0,25.34,WNW,302,7.0,14.0,60,0.00,,,0.00,weatherlink.com 1.10,2013-12-15 09:32:00,
2013-12-15 02:47:00,-999.0,-99.9,25.32,North,-999,-999.0,-999.0,-999,0.00,,,0.00,weatherlink.com 1.10,2013-12-15 09:47:00,
2013-12-15 03:02:00,-999.0,-99.9,25.32,North,-999,-999.0,-999.0,-999,0.00,,,0.00,weatherlink.com 1.10,2013-12-15 10:02:00,
2013-12-15 03:17:00,-999.0,-99.9,25.32,North,-999,-999.0,-999.0,-999,0.00,,,0.00,weatherlink.com 1.10,2013-12-15 10:17:00,
2013-12-15 03:32:00,-999.0,-99.9,25.32,North,-999,-999.0,-999.0,-999,0.00,,,0.00,weatherlink.com 1.10,2013-12-15 10:32:00,
2013-12-15 03:47:00,-999.0,-99.9,25.31,North,-999,-999.0,-999.0,-999,0.00,,,0.00,weatherlink.com 1.10,2013-12-15 10:47:00,
2013-12-15 04:02:00,-999.0,-99.9,25.31,North,-999,-999.0,-999.0,-999,0.00,,,0.00,weatherlink.com 1.10,2013-12-15 11:02:00,
2013-12-15 04:17:00,-999.0,-99.9,25.32,North,-999,-999.0,-999.0,-999,0.00,,,0.00,weatherlink.com 1.10,2013-12-15 11:17:00,
2013-12-15 04:32:00,-999.0,-99.9,25.32,North,-999,-999.0,-999.0,-999,0.00,,,0.00,weatherlink.com 1.10,2013-12-15 11:32:00,
2013-12-15 04:47:00,-999.0,-99.9,25.32,North,-999,-999.0,-999.0,-999,0.00,,,0.00,weatherlink.com 1.10,2013-12-15 11:47:00,
2013-12-15 05:02:00,-999.0,-99.9,25.31,North,-999,-999.0,-999.0,-999,0.00,,,0.00,weatherlink.com 1.10,2013-12-15 12:02:00,
2013-12-15 05:17:00,-999.0,-99.9,25.31,North,-999,-999.0,-999.0,-999,0.00,,,0.00,weatherlink.com 1.10,2013-12-15 12:17:00,
2013-12-15 05:32:00,-999.0,-99.9,25.31,North,-999,-999.0,-999.0,-999,0.00,,,0.00,weatherlink.com 1.10,2013-12-15 12:32:00,
2013-12-15 05:48:00,-999.0,-99.9,25.30,North,-999,-999.0,-999.0,-999,0.00,,,0.00,weatherlink.com 1.10,2013-12-15 12:48:00,
2013-12-15 06:03:00,-999.0,-99.9,25.31,North,-999,-999.0,-999.0,-999,0.00,,,0.00,weatherlink.com 1.10,2013-12-15 13:03:00,
2013-12-15 06:18:00,-999.0,-99.9,25.31,North,-999,-999.0,-999.0,-999,0.00,,,0.00,weatherlink.com 1.10,2013-12-15 13:18:00,
2013-12-15 06:33:00,-999.0,-99.9,25.31,North,-999,-999.0,-999.0,-999,0.00,,,0.00,weatherlink.com 1.10,2013-12-15 13:33:00,
2013-12-15 06:48:00,-999.0,-99.9,25.31,North,-999,-999.0,-999.0,-999,0.00,,,0.00,weatherlink.com 1.10,2013-12-15 13:48:00,
2013-12-15 07:03:00,-999.0,-99.9,25.30,North,-999,-999.0,-999.0,-999,0.00,,,0.00,weatherlink.com 1.10,2013-12-15 14:03:00,
2013-12-15 07:18:00,-999.0,-99.9,25.31,North,-999,-999.0,-999.0,-999,0.00,,,0.00,weatherlink.com 1.10,2013-12-15 14:18:00,
2013-12-15 07:33:00,-999.0,-99.9,25.31,North,-999,-999.0,-999.0,-999,0.00,,,0.00,weatherlink.com 1.10,2013-12-15 14:33:00,
2013-12-15 07:48:00,33.7,21.0,25.31,WSW,255,12.0,13.0,59,0.00,,,0.00,weatherlink.com 1.10,2013-12-15 14:48:00,
2013-12-15 08:03:00,34.6,21.0,25.30,WSW,255,7.0,13.0,58,0.00,,,0.00,weatherlink.com 1.10,2013-12-15 15:03:00,
2013-12-15 08:18:00,36.0,21.0,25.31,SW,233,12.0,16.0,55,0.00,,,0.00,weatherlink.com 1.10,2013-12-15 15:18:00,
2013-12-15 08:33:00,37.2,22.0,25.31,West,278,8.0,17.0,54,0.00,,,0.00,weatherlink.com 1.10,2013-12-15 15:33:00,
2013-12-15 08:48:00,38.3,22.0,25.31,West,278,7.0,15.0,53,0.00,,,0.00,weatherlink.com 1.10,2013-12-15 15:48:00,
2013-12-15 09:03:00,39.3,24.0,25.31,WNW,297,12.0,14.0,54,0.00,,,0.00,weatherlink.com 1.10,2013-12-15 16:03:00,
2013-12-15 09:18:00,42.4,24.0,25.32,West,264,9.0,18.0,48,0.00,,,0.00,weatherlink.com 1.10,2013-12-15 16:18:00,
2013-12-15 09:33:00,43.3,24.0,25.32,WNW,299,10.0,17.0,46,0.00,,,0.00,weatherlink.com 1.10,2013-12-15 16:33:00,
2013-12-15 09:48:00,43.4,24.0,25.32,NW,304,11.0,20.0,46,0.00,,,0.00,weatherlink.com 1.10,2013-12-15 16:48:00,
2013-12-15 10:03:00,44.7,24.0,25.32,West,272,8.0,17.0,44,0.00,,,0.00,weatherlink.com 1.10,2013-12-15 17:03:00,
2013-12-15 10:18:00,46.7,24.0,25.32,WNW,294,13.0,21.0,41,0.00,,,0.00,weatherlink.com 1.10,2013-12-15 17:18:00,
2013-12-15 10:33:00,47.3,23.0,25.32,NW,306,8.0,22.0,39,0.00,,,0.00,weatherlink.com 1.10,2013-12-15 17:33:00,
2013-12-15 10:49:00,47.7,23.0,25.31,West,273,12.0,21.0,38,0.00,,,0.00,weatherlink.com 1.10,2013-12-15 17:49:00,
2013-12-15 11:04:00,47.7,22.0,25.30,NW,319,13.0,23.0,37,0.00,,,0.00,weatherlink.com 1.10,2013-12-15 18:04:00,
2013-12-15 11:19:00,48.3,23.0,25.29,West,270,10.0,20.0,37,0.00,,,0.00,weatherlink.com 1.10,2013-12-15 18:19:00,
2013-12-15 11:34:00,49.1,23.0,25.29,NNW,345,9.0,24.0,36,0.00,,,0.00,weatherlink.com 1.10,2013-12-15 18:34:00,
2013-12-15 11:49:00,49.2,23.0,25.28,WNW,285,9.0,21.0,36,0.00,,,0.00,weatherlink.com 1.10,2013-12-15 18:49:00,
2013-12-15 12:04:00,49.8,23.0,25.28,WNW,288,18.0,24.0,35,0.00,,,0.00,weatherlink.com 1.10,2013-12-15 19:04:00,
2013-12-15 12:19:00,49.9,22.0,25.28,NW,315,12.0,23.0,34,0.00,,,0.00,weatherlink.com 1.10,2013-12-15 19:19:00,
2013-12-15 12:34:00,51.0,23.0,25.27,NW,319,11.0,20.0,33,0.00,,,0.00,weatherlink.com 1.10,2013-12-15 19:34:00,
2013-12-15 12:49:00,51.4,23.0,25.27,WNW,290,9.0,18.0,33,0.00,,,0.00,weatherlink.com 1.10,2013-12-15 19:49:00,
2013-12-15 13:04:00,51.6,22.0,25.27,NW,316,10.0,22.0,32,0.00,,,0.00,weatherlink.com 1.10,2013-12-15 20:04:00,
2013-12-15 13:19:00,52.2,22.0,25.27,NW,304,18.0,20.0,31,0.00,,,0.00,weatherlink.com 1.10,2013-12-15 20:19:00,
2013-12-15 13:34:00,52.1,22.0,25.27,West,265,7.0,20.0,31,0.00,,,0.00,weatherlink.com 1.10,2013-12-15 20:34:00,
2013-12-15 13:49:00,52.0,22.0,25.27,WNW,293,10.0,17.0,31,0.00,,,0.00,weatherlink.com 1.10,2013-12-15 20:49:00,
2013-12-15 14:04:00,52.1,22.0,25.26,West,277,13.0,20.0,31,0.00,,,0.00,weatherlink.com 1.10,2013-12-15 21:04:00,
2013-12-15 14:19:00,52.3,22.0,25.26,NW,325,11.0,16.0,31,0.00,,,0.00,weatherlink.com 1.10,2013-12-15 21:19:00,
2013-12-15 14:34:00,52.2,23.0,25.26,WNW,302,8.0,15.0,32,0.00,,,0.00,weatherlink.com 1.10,2013-12-15 21:34:00,
2013-12-15 14:49:00,52.6,23.0,25.26,WNW,287,5.0,9.0,32,0.00,,,0.00,weatherlink.com 1.10,2013-12-15 21:49:00,
2013-12-15 15:04:00,53.0,22.0,25.26,NW,309,8.0,15.0,30,0.00,,,0.00,weatherlink.com 1.10,2013-12-15 22:04:00,
2013-12-15 15:19:00,52.7,23.0,25.26,WNW,293,8.0,14.0,31,0.00,,,0.00,weatherlink.com 1.10,2013-12-15 22:19:00,
2013-12-15 15:34:00,51.6,22.0,25.26,West,270,8.0,16.0,32,0.00,,,0.00,weatherlink.com 1.10,2013-12-15 22:34:00,
2013-12-15 15:49:00,50.2,23.0,25.26,NW,304,3.0,11.0,34,0.00,,,0.00,weatherlink.com 1.10,2013-12-15 22:49:00,
2013-12-15 16:04:00,49.6,23.0,25.26,West,273,0.0,6.0,35,0.00,,,0.00,weatherlink.com 1.10,2013-12-15 23:04:00,
2013-12-15 16:19:00,47.5,23.0,25.26,WSW,256,4.0,7.0,38,0.00,,,0.00,weatherlink.com 1.10,2013-12-15 23:19:00,
2013-12-15 16:34:00,44.9,22.0,25.26,West,273,4.0,8.0,41,0.00,,,0.00,weatherlink.com 1.10,2013-12-15 23:34:00,
2013-12-15 16:49:00,46.5,23.0,25.27,West,264,9.0,13.0,39,0.00,,,0.00,weatherlink.com 1.10,2013-12-15 23:49:00,
2013-12-15 17:04:00,46.3,22.0,25.26,WNW,287,4.0,8.0,39,0.00,,,0.00,weatherlink.com 1.10,2013-12-16 00:04:00,
2013-12-15 17:19:00,45.2,22.0,25.26,SW,229,4.0,6.0,40,0.00,,,0.00,weatherlink.com 1.10,2013-12-16 00:19:00,
2013-12-15 17:34:00,43.7,22.0,25.26,West,273,2.0,6.0,43,0.00,,,0.00,weatherlink.com 1.10,2013-12-16 00:34:00,
2013-12-15 17:49:00,43.2,22.0,25.26,West,274,3.0,8.0,43,0.00,,,0.00,weatherlink.com 1.10,2013-12-16 00:49:00,
2013-12-15 18:04:00,43.3,22.0,25.25,WSW,254,4.0,12.0,43,0.00,,,0.00,weatherlink.com 1.10,2013-12-16 01:04:00,
2013-12-15 18:19:00,43.5,22.0,25.25,WSW,245,5.0,9.0,42,0.00,,,0.00,weatherlink.com 1.10,2013-12-16 01:19:00,
2013-12-15 18:34:00,42.8,22.0,25.25,WSW,246,6.0,8.0,44,0.00,,,0.00,weatherlink.com 1.10,2013-12-16 01:34:00,
2013-12-15 18:49:00,43.1,22.0,25.25,West,271,5.0,10.0,43,0.00,,,0.00,weatherlink.com 1.10,2013-12-16 01:49:00,
2013-12-15 19:04:00,43.9,22.0,25.25,WNW,283,5.0,12.0,42,0.00,,,0.00,weatherlink.com 1.10,2013-12-16 02:04:00,
2013-12-15 19:19:00,43.7,22.0,25.25,West,260,2.0,6.0,43,0.00,,,0.00,weatherlink.com 1.10,2013-12-16 02:19:00,
2013-12-15 19:34:00,42.6,22.0,25.26,ESE,103,0.0,1.0,45,0.00,,,0.00,weatherlink.com 1.10,2013-12-16 02:34:00,
2013-12-15 19:49:00,41.5,22.0,25.26,South,186,1.0,4.0,46,0.00,,,0.00,weatherlink.com 1.10,2013-12-16 02:49:00,
2013-12-15 20:04:00,40.8,22.0,25.26,SSE,167,2.0,2.0,47,0.00,,,0.00,weatherlink.com 1.10,2013-12-16 03:04:00,
2013-12-15 20:19:00,40.7,21.0,25.26,South,184,0.0,3.0,46,0.00,,,0.00,weatherlink.com 1.10,2013-12-16 03:19:00,
2013-12-15 20:34:00,41.0,21.0,25.27,WSW,256,1.0,2.0,46,0.00,,,0.00,weatherlink.com 1.10,2013-12-16 03:34:00,
2013-12-15 20:49:00,41.1,22.0,25.27,West,273,4.0,5.0,46,0.00,,,0.00,weatherlink.com 1.10,2013-12-16 03:49:00,
2013-12-15 21:04:00,40.7,21.0,25.26,WSW,240,2.0,4.0,46,0.00,,,0.00,weatherlink.com 1.10,2013-12-16 04:04:00,
2013-12-15 21:19:00,39.7,21.0,25.25,WSW,238,0.0,4.0,48,0.00,,,0.00,weatherlink.com 1.10,2013-12-16 04:19:00,
2013-12-15 21:34:00,39.1,21.0,25.26,SE,131,0.0,3.0,49,0.00,,,0.00,weatherlink.com 1.10,2013-12-16 04:34:00,
2013-12-15 21:49:00,36.4,21.0,25.26,SW,236,0.0,4.0,53,0.00,,,0.00,weatherlink.com 1.10,2013-12-16 04:49:00,
2013-12-15 22:04:00,38.7,21.0,25.26,North,4,5.0,9.0,50,0.00,,,0.00,weatherlink.com 1.10,2013-12-16 05:04:00,
2013-12-15 22:19:00,43.1,21.0,25.26,NW,314,6.0,9.0,41,0.00,,,0.00,weatherlink.com 1.10,2013-12-16 05:19:00,
2013-12-15 22:34:00,44.8,21.0,25.25,West,276,6.0,12.0,39,0.00,,,0.00,weatherlink.com 1.10,2013-12-16 05:34:00,
2013-12-15 22:49:00,43.3,21.0,25.25,NW,307,3.0,4.0,41,0.00,,,0.00,weatherlink.com 1.10,2013-12-16 05:49:00,
2013-12-15 23:04:00,44.2,21.0,25.25,NW,313,11.0,15.0,40,0.00,,,0.00,weatherlink.com 1.10,2013-12-16 06:04:00,
2013-12-15 23:19:00,45.1,21.0,25.25,WNW,293,13.0,23.0,38,0.00,,,0.00,weatherlink.com 1.10,2013-12-16 06:19:00,
2013-12-15 23:34:00,44.8,20.0,25.25,NW,308,14.0,19.0,38,0.00,,,0.00,weatherlink.com 1.10,2013-12-16 06:34:00,
2013-12-15 23:49:00,44.3,21.0,25.25,WNW,285,10.0,19.0,39,0.00,,,0.00,weatherlink.com 1.10,2013-12-16 06:49:00,